TimeICT,TemperatureF,Dew PointF,Humidity,Sea Level PressureIn,VisibilityMPH,Wind Direction,Wind SpeedMPH,Gust SpeedMPH,PrecipitationIn,Events,Conditions,WindDirDegrees,DateUTC
12:00 AM,71.6,68.0,88,29.98,6.2,North,4.6,-,N/A,,Mostly Cloudy,10,2013-11-19 17:00:00
1:00 AM,73,65,70,29.97,6,NNE,5.8,,,,Scattered Clouds,30,2013-11-19 18:00:00
1:00 AM,71.6,66.2,83,29.98,6.2,NNE,5.8,-,N/A,,Mostly Cloudy,30,2013-11-19 18:00:00
2:00 AM,71.6,64.4,78,29.95,6.2,NNE,8.1,-,N/A,,Mostly Cloudy,20,2013-11-19 19:00:00
3:00 AM,69.8,64.4,83,29.95,6.2,NNE,4.6,-,N/A,,Mostly Cloudy,20,2013-11-19 20:00:00
4:00 AM,71,65,75,29.95,6,North,4.6,,,,Scattered Clouds,10,2013-11-19 21:00:00
4:00 AM,69.8,66.2,88,29.95,6.2,North,3.5,-,N/A,,Mostly Cloudy,10,2013-11-19 21:00:00
5:00 AM,68.0,66.2,94,29.95,-9999.0,North,4.6,-,N/A,,Clear,360,2013-11-19 22:00:00
6:00 AM,66.2,64.4,94,29.95,-9999.0,North,3.5,-,N/A,,Clear,360,2013-11-19 23:00:00
7:00 AM,68,64,81,29.95,5,North,3.5,,,,Mist,350,2013-11-20 00:00:00
7:00 AM,66.2,64.4,94,29.95,5.0,North,4.6,-,N/A,,Unknown,360,2013-11-20 00:00:00
8:00 AM,69.8,66.2,88,29.98,-9999.0,North,4.6,-,N/A,,Clear,360,2013-11-20 01:00:00
9:00 AM,75.2,64.4,69,30.01,-9999.0,NE,6.9,-,N/A,,Clear,40,2013-11-20 02:00:00
10:00 AM,78,74,85,29.98,6,NE,6.9,,,,Scattered Clouds,50,2013-11-20 03:00:00
10:00 AM,78.8,66.2,65,30.01,6.2,NE,8.1,-,N/A,,Mostly Cloudy,50,2013-11-20 03:00:00
11:00 AM,78.8,66.2,65,29.98,6.2,NE,9.2,-,N/A,,Mostly Cloudy,40,2013-11-20 04:00:00
12:00 PM,80.6,66.2,61,29.95,6.2,East,3.5,-,N/A,,Mostly Cloudy,90,2013-11-20 05:00:00
1:00 PM,82,63,43,29.89,6,ESE,4.6,,,,Scattered Clouds,110,2013-11-20 06:00:00
1:00 PM,82.4,68.0,62,29.92,6.2,ESE,6.9,-,N/A,,Partly Cloudy,120,2013-11-20 06:00:00
2:00 PM,84.2,68.0,58,29.89,6.2,Variable,6.9,-,N/A,,Partly Cloudy,0,2013-11-20 07:00:00
3:00 PM,86.0,68.0,55,29.86,6.2,NE,5.8,-,N/A,,Scattered Clouds,50,2013-11-20 08:00:00
4:00 PM,84,65,43,29.82,6,East,4.6,,,,Scattered Clouds,80,2013-11-20 09:00:00
4:00 PM,84.2,68.0,58,29.86,6.2,East,5.8,-,N/A,,Scattered Clouds,90,2013-11-20 09:00:00
5:00 PM,84.2,68.0,58,29.86,6.2,NNE,8.1,-,N/A,,Scattered Clouds,30,2013-11-20 10:00:00
6:00 PM,78.8,68.0,69,29.86,6.2,North,4.6,-,N/A,,Scattered Clouds,10,2013-11-20 11:00:00
7:00 PM,81,66,51,29.86,6,North,5.8,,,,Scattered Clouds,10,2013-11-20 12:00:00
7:00 PM,78.8,69.8,74,29.89,6.2,North,4.6,-,N/A,,Scattered Clouds,10,2013-11-20 12:00:00
9:00 PM,77.0,68.0,74,29.92,-9999.0,NNE,6.9,-,N/A,,Clear,30,2013-11-20 14:00:00
10:00 PM,76,67,66,29.91,6,North,5.8,,,,Clear,350,2013-11-20 15:00:00